createdAt,value
2022-11-03T00:00:31.817Z,0.95
2022-11-03T00:02:58.465Z,1.13
2022-11-03T00:05:43.808Z,1.25
2022-11-03T00:10:41.787Z,1.25
2022-11-03T00:13:08.530Z,1.20
2022-11-03T00:15:35.411Z,1.00
2022-11-03T00:18:01.954Z,1.05
2022-11-03T00:20:33.110Z,1.40
2022-11-03T00:22:59.693Z,1.20
2022-11-03T00:25:26.244Z,0.95
2022-11-03T00:27:56.829Z,1.10
2022-11-03T00:30:23.466Z,1.13
2022-11-03T00:32:50.005Z,1.00
2022-11-03T00:35:16.579Z,1.00
2022-11-03T00:37:43.115Z,0.85
2022-11-03T00:40:11.015Z,1.13
2022-11-03T00:42:38.977Z,1.10
2022-11-03T00:45:06.026Z,1.10
2022-11-03T00:47:32.592Z,1.05
2022-11-03T00:49:59.135Z,1.15
2022-11-03T00:52:25.689Z,0.80
2022-11-03T00:54:55.390Z,1.10
2022-11-03T00:57:22.159Z,1.00
2022-11-03T00:59:48.713Z,1.00
2022-11-03T01:02:15.401Z,1.10
2022-11-03T01:05:02.299Z,0.98
2022-11-03T01:07:28.841Z,1.05
2022-11-03T01:09:55.373Z,0.82
2022-11-03T01:12:21.892Z,1.00
2022-11-03T01:14:53.280Z,1.10
2022-11-03T01:17:22.441Z,0.90
2022-11-03T01:19:50.285Z,1.13
2022-11-03T01:22:17.599Z,1.40
2022-11-03T01:24:44.901Z,0.75
2022-11-03T01:27:14.922Z,1.00
2022-11-03T01:29:42.303Z,1.00
2022-11-03T01:32:09.355Z,1.05
2022-11-03T01:34:36.262Z,1.05
2022-11-03T01:37:03.299Z,1.17
2022-11-03T01:39:29.942Z,1.15
2022-11-03T01:41:56.864Z,0.98
2022-11-03T01:44:36.687Z,0.98
2022-11-03T01:47:26.899Z,1.08
2022-11-03T01:50:01.408Z,0.88
2022-11-03T01:52:36.998Z,0.80
2022-11-03T01:55:12.559Z,0.88
2022-11-03T01:57:44.347Z,1.02
2022-11-03T02:00:11.535Z,0.73
2022-11-03T02:02:38.095Z,0.77
2022-11-03T02:05:05.982Z,0.95
2022-11-03T02:07:49.756Z,1.02
2022-11-03T02:10:16.804Z,0.93
2022-11-03T02:12:44.043Z,0.95
2022-11-03T02:15:14.203Z,1.00
2022-11-03T02:17:43.210Z,1.08
2022-11-03T02:20:31.128Z,1.33
2022-11-03T02:23:24.918Z,0.82
2022-11-03T02:25:57.676Z,1.20
2022-11-03T02:28:27.814Z,0.90
2022-11-03T02:30:57.347Z,0.70
2022-11-03T02:33:34.506Z,1.05
2022-11-03T02:36:07.274Z,1.00
2022-11-03T02:38:38.180Z,0.80
2022-11-03T02:41:08.398Z,1.00
2022-11-03T02:43:35.358Z,0.90
2022-11-03T02:46:04.922Z,0.90
2022-11-03T02:48:32.153Z,1.00
2022-11-03T02:50:58.690Z,0.60
2022-11-03T02:53:28.229Z,1.08
2022-11-03T02:56:11.432Z,0.82
2022-11-03T02:59:15.535Z,0.95
2022-11-03T03:01:48.935Z,0.90
2022-11-03T03:04:26.464Z,1.00
2022-11-03T03:07:02.137Z,0.98
2022-11-03T03:09:53.863Z,0.98
2022-11-03T03:12:21.768Z,0.80
2022-11-03T03:14:50.905Z,1.00
2022-11-03T03:17:50.071Z,0.90
2022-11-03T03:20:37.340Z,0.70
2022-11-03T03:23:31.966Z,0.77
2022-11-03T03:26:13.438Z,0.82
2022-11-03T03:28:51.372Z,0.65
2022-11-03T03:31:19.822Z,0.77
2022-11-03T03:33:48.687Z,0.88
2022-11-03T03:36:18.899Z,0.70
2022-11-03T03:38:50.799Z,0.80
2022-11-03T03:41:22.019Z,1.05
2022-11-03T03:43:54.355Z,0.75
2022-11-03T03:46:23.121Z,1.00
2022-11-03T03:48:49.707Z,0.60
2022-11-03T03:51:20.762Z,0.70
2022-11-03T03:53:51.980Z,1.00
2022-11-03T03:56:26.483Z,0.95
2022-11-03T03:58:53.035Z,0.60
2022-11-03T04:01:19.628Z,0.68
2022-11-03T04:03:46.308Z,1.10
2022-11-03T04:06:12.848Z,0.90
2022-11-03T04:08:39.576Z,0.88
2022-11-03T04:11:24.659Z,0.82
2022-11-03T04:14:10.093Z,0.70
2022-11-03T04:16:55.616Z,0.68
2022-11-03T04:19:41.026Z,0.70
2022-11-03T04:22:17.325Z,0.85
2022-11-03T04:24:48.856Z,0.82
2022-11-03T04:27:33.909Z,0.77
2022-11-03T04:30:21.320Z,0.77
2022-11-03T04:32:49.695Z,0.82
2022-11-03T04:35:24.543Z,0.90
2022-11-03T04:37:58.889Z,0.70
2022-11-03T04:40:25.801Z,0.70
2022-11-03T04:42:52.806Z,0.52
2022-11-03T04:45:22.254Z,0.75
2022-11-03T04:47:49.396Z,0.70
2022-11-03T04:50:19.471Z,0.80
2022-11-03T04:52:47.979Z,0.60
2022-11-03T04:55:16.690Z,0.90
2022-11-03T04:57:44.311Z,0.73
2022-11-03T05:00:19.035Z,0.90
2022-11-03T05:02:51.519Z,0.70
2022-11-03T05:05:24.512Z,0.80
2022-11-03T05:07:56.481Z,0.70
2022-11-03T05:10:27.043Z,0.68
2022-11-03T05:12:54.862Z,0.70
2022-11-03T05:15:44.534Z,0.93
2022-11-03T05:18:24.673Z,0.73
2022-11-03T05:20:56.258Z,0.70
2022-11-03T05:23:23.377Z,0.52
2022-11-03T05:25:52.870Z,0.60
2022-11-03T05:28:21.502Z,0.88
2022-11-03T05:30:52.020Z,0.70
2022-11-03T05:33:35.058Z,0.82
2022-11-03T05:36:07.959Z,0.70
2022-11-03T05:38:34.795Z,0.73
2022-11-03T05:41:01.632Z,0.80
2022-11-03T05:43:29.814Z,0.70
2022-11-03T05:46:00.384Z,0.73
2022-11-03T05:48:38.538Z,0.70
2022-11-03T05:51:15.616Z,0.60
2022-11-03T05:53:43.334Z,0.70
2022-11-03T05:56:18.161Z,0.82
2022-11-03T05:58:46.127Z,0.65
2022-11-03T06:01:29.814Z,0.63
2022-11-03T06:03:59.103Z,1.90
2022-11-03T06:06:34.339Z,1.85
2022-11-03T06:09:12.845Z,2.20
2022-11-03T06:11:40.054Z,2.30
2022-11-03T06:14:33.740Z,2.40
2022-11-03T06:17:05.776Z,2.70
2022-11-03T06:22:19.458Z,2.50
2022-11-03T06:27:34.136Z,2.67
2022-11-03T06:30:23.905Z,3.88
2022-11-03T06:32:50.440Z,2.90
2022-11-03T06:35:17.744Z,2.38
2022-11-03T06:37:44.979Z,2.30
2022-11-03T06:40:33.085Z,2.22
2022-11-03T06:43:00.859Z,2.50
2022-11-03T06:45:27.815Z,2.00
2022-11-03T06:47:55.265Z,2.22
2022-11-03T06:50:29.824Z,2.08
2022-11-03T06:52:57.681Z,1.90
2022-11-03T06:55:32.647Z,2.17
2022-11-03T06:58:04.410Z,2.22
2022-11-03T07:00:36.351Z,2.05
2022-11-03T07:03:10.581Z,1.88
2022-11-03T07:05:38.877Z,1.90
2022-11-03T07:08:19.723Z,2.30
2022-11-03T07:10:46.343Z,2.05
2022-11-03T07:13:17.889Z,1.80
2022-11-03T07:15:45.787Z,2.38
2022-11-03T07:18:35.732Z,2.00
2022-11-03T07:21:19.506Z,1.60
2022-11-03T07:23:47.269Z,1.95
2022-11-03T07:26:13.956Z,1.80
2022-11-03T07:28:40.543Z,1.90
2022-11-03T07:31:27.483Z,1.67
2022-11-03T07:34:00.001Z,1.70
2022-11-03T07:36:31.837Z,1.88
2022-11-03T07:39:01.026Z,1.60
2022-11-03T07:41:34.214Z,1.65
2022-11-03T07:44:02.347Z,1.98
2022-11-03T07:46:28.965Z,2.10
2022-11-03T07:49:01.911Z,1.90
2022-11-03T07:51:33.314Z,1.45
2022-11-03T07:54:08.439Z,2.33
2022-11-03T07:56:44.919Z,1.67
2022-11-03T07:59:11.617Z,1.80
2022-11-03T08:01:42.251Z,1.88
2022-11-03T08:04:13.864Z,1.65
2022-11-03T08:06:40.387Z,1.70
2022-11-03T08:09:07.079Z,1.52
2022-11-03T08:11:33.645Z,1.80
2022-11-03T08:14:00.170Z,1.85
2022-11-03T08:16:26.775Z,1.80
2022-11-03T08:18:53.346Z,1.90
2022-11-03T08:21:19.917Z,1.92
2022-11-03T08:23:47.796Z,1.80
2022-11-03T08:26:15.251Z,1.80
2022-11-03T08:28:42.105Z,1.67
2022-11-03T08:31:12.594Z,1.40
2022-11-03T08:33:40.172Z,1.40
2022-11-03T08:36:08.363Z,1.50
2022-11-03T08:38:35.123Z,1.70
2022-11-03T08:41:02.122Z,1.27
2022-11-03T08:43:28.977Z,1.73
2022-11-03T08:45:56.040Z,1.67
2022-11-03T08:48:27.031Z,1.50
2022-11-03T08:50:54.572Z,1.35
2022-11-03T08:53:25.851Z,1.70
2022-11-03T08:55:53.407Z,1.20
2022-11-03T08:58:21.140Z,1.45
2022-11-03T09:00:48.550Z,1.50
2022-11-03T09:03:15.541Z,1.58
2022-11-03T09:05:42.162Z,1.48
2022-11-03T09:10:55.362Z,1.40
2022-11-03T09:13:21.892Z,1.25
2022-11-03T09:15:48.484Z,1.42
2022-11-03T09:18:15.091Z,1.30
2022-11-03T09:20:41.636Z,1.40
2022-11-03T09:23:08.194Z,1.33
2022-11-03T09:25:34.735Z,1.33
2022-11-03T09:28:01.282Z,1.42
2022-11-03T09:30:29.100Z,1.52
2022-11-03T09:32:55.657Z,1.30
2022-11-03T09:35:22.174Z,1.30
2022-11-03T09:37:48.737Z,1.50
2022-11-03T09:40:17.214Z,1.27
2022-11-03T09:42:44.379Z,1.30
2022-11-03T09:45:11.532Z,1.40
2022-11-03T09:47:43.324Z,1.30
2022-11-03T09:50:19.240Z,1.20
2022-11-03T09:52:51.498Z,1.30
2022-11-03T09:55:24.774Z,1.20
2022-11-03T09:58:00.649Z,1.00
2022-11-03T10:00:27.422Z,1.35
2022-11-03T10:02:54.931Z,1.30
2022-11-03T10:05:26.712Z,1.35
2022-11-03T10:07:58.909Z,1.35
2022-11-03T10:10:26.294Z,1.85
2022-11-03T10:12:53.538Z,1.30
2022-11-03T10:15:23.141Z,1.30
2022-11-03T10:17:50.539Z,1.38
2022-11-03T10:20:20.260Z,1.10
2022-11-03T10:22:50.848Z,1.40
2022-11-03T10:25:36.017Z,1.30
2022-11-03T10:28:23.543Z,1.30
2022-11-03T10:31:17.017Z,1.50
2022-11-03T10:33:54.743Z,1.40
2022-11-03T10:36:26.884Z,1.10
2022-11-03T10:41:27.964Z,1.13
2022-11-03T10:44:06.054Z,1.20
2022-11-03T10:49:20.888Z,1.33
2022-11-03T10:51:50.589Z,1.00
2022-11-03T10:54:18.859Z,1.58
2022-11-03T10:56:47.096Z,1.17
2022-11-03T10:59:27.278Z,1.25
2022-11-03T11:01:54.294Z,1.50
2022-11-03T11:04:21.216Z,1.15
2022-11-03T11:06:48.312Z,0.98
2022-11-03T11:09:22.007Z,1.40
2022-11-03T11:12:25.319Z,1.20
2022-11-03T11:15:00.038Z,1.02
2022-11-03T11:17:42.095Z,1.23
2022-11-03T11:20:18.706Z,1.30
2022-11-03T11:22:45.776Z,1.02
2022-11-03T11:25:12.739Z,1.17
2022-11-03T11:27:39.235Z,1.20
2022-11-03T11:30:27.442Z,1.02
2022-11-03T11:33:00.703Z,1.00
2022-11-03T11:35:27.208Z,1.00
2022-11-03T11:37:54.584Z,1.10
2022-11-03T11:40:23.850Z,0.90
2022-11-03T11:43:02.313Z,1.00
2022-11-03T11:46:06.231Z,1.20
2022-11-03T11:48:33.731Z,1.15
2022-11-03T11:51:02.237Z,1.05
2022-11-03T11:53:39.534Z,1.10
2022-11-03T11:56:10.563Z,1.30
2022-11-03T11:58:53.788Z,1.23
2022-11-03T12:01:34.255Z,1.23
2022-11-03T12:04:07.084Z,1.10
2022-11-03T12:09:24.037Z,1.00
2022-11-03T12:12:00.646Z,1.10
2022-11-03T12:14:37.533Z,1.20
2022-11-03T12:17:19.046Z,1.08
2022-11-03T12:19:55.361Z,1.20
2022-11-03T12:22:25.889Z,1.10
2022-11-03T12:24:56.883Z,1.20
2022-11-03T12:27:26.719Z,1.30
2022-11-03T12:30:05.680Z,0.93
2022-11-03T12:32:34.945Z,1.10
2022-11-03T12:35:03.686Z,1.10
2022-11-03T12:37:30.237Z,0.90
2022-11-03T12:39:56.823Z,1.00
2022-11-03T12:42:24.829Z,1.08
2022-11-03T12:44:51.671Z,0.88
2022-11-03T12:47:18.227Z,1.00
2022-11-03T12:49:44.833Z,0.95
2022-11-03T12:52:11.508Z,1.20
2022-11-03T12:54:39.563Z,0.88
2022-11-03T12:57:06.128Z,1.05
2022-11-03T12:59:32.668Z,1.02
2022-11-03T13:01:59.301Z,1.10
2022-11-03T13:04:26.054Z,0.95
2022-11-03T13:06:52.613Z,1.17
2022-11-03T13:09:19.196Z,0.90
2022-11-03T13:12:04.554Z,0.90
2022-11-03T13:14:31.084Z,0.82
2022-11-03T13:16:57.636Z,0.80
2022-11-03T13:19:24.200Z,1.30
2022-11-03T13:21:50.726Z,0.98
2022-11-03T13:24:17.313Z,0.95
2022-11-03T13:26:43.830Z,0.90
2022-11-03T13:29:10.837Z,1.08
2022-11-03T13:31:37.534Z,1.00
2022-11-03T13:34:04.123Z,1.17
2022-11-03T13:36:30.755Z,1.00
2022-11-03T13:38:57.457Z,0.90
2022-11-03T13:41:24.008Z,1.17
2022-11-03T13:43:50.546Z,1.00
2022-11-03T13:46:17.083Z,1.08
2022-11-03T13:51:30.216Z,1.00
2022-11-03T13:59:29.911Z,0.95
2022-11-03T14:04:44.205Z,1.02
2022-11-03T14:07:11.339Z,0.90
2022-11-03T14:09:38.020Z,1.10
2022-11-03T14:12:23.578Z,0.90
2022-11-03T14:14:50.124Z,1.00
2022-11-03T14:17:16.680Z,0.90
2022-11-03T14:19:47.491Z,1.00
2022-11-03T14:22:18.053Z,1.15
2022-11-03T14:24:44.599Z,1.00
2022-11-03T14:27:11.219Z,1.00
2022-11-03T14:29:37.836Z,1.10
2022-11-03T14:32:05.092Z,1.20
2022-11-03T14:34:31.711Z,1.00
2022-11-03T14:36:58.429Z,1.00
2022-11-03T14:39:25.031Z,0.70
2022-11-03T14:42:03.591Z,0.80
2022-11-03T14:44:31.990Z,0.85
2022-11-03T14:47:01.339Z,1.33
2022-11-03T14:49:28.722Z,1.00
2022-11-03T14:51:56.869Z,1.00
2022-11-03T14:54:26.481Z,1.10
2022-11-03T14:56:53.742Z,1.25
2022-11-03T14:59:21.335Z,0.80
2022-11-03T15:01:49.504Z,0.95
2022-11-03T15:04:16.071Z,1.00
2022-11-03T15:06:42.741Z,0.80
2022-11-03T15:11:45.413Z,0.88
2022-11-03T15:14:12.912Z,0.98
2022-11-03T15:16:39.948Z,0.90
2022-11-03T15:19:07.467Z,1.10
2022-11-03T15:21:34.350Z,1.10
2022-11-03T15:26:47.678Z,1.10
2022-11-03T15:29:15.303Z,1.00
2022-11-03T15:31:47.203Z,0.88
2022-11-03T15:34:15.182Z,0.90
2022-11-03T15:36:41.826Z,0.93
2022-11-03T15:39:08.374Z,0.85
2022-11-03T15:41:35.206Z,0.80
2022-11-03T15:44:01.762Z,1.10
2022-11-03T15:46:28.318Z,1.10
2022-11-03T15:48:56.368Z,0.85
2022-11-03T15:51:23.148Z,1.00
2022-11-03T15:53:54.967Z,1.00
2022-11-03T15:56:23.416Z,1.35
2022-11-03T15:58:50.545Z,0.95
2022-11-03T16:01:17.220Z,1.10
2022-11-03T16:03:43.906Z,1.02
2022-11-03T16:06:10.951Z,1.00
2022-11-03T16:08:38.121Z,1.13
2022-11-03T16:11:04.893Z,0.93
2022-11-03T16:13:31.468Z,1.13
2022-11-03T16:15:58.271Z,0.90
2022-11-03T16:18:25.031Z,0.90
2022-11-03T16:20:51.578Z,0.90
2022-11-03T16:23:18.174Z,0.90
2022-11-03T16:25:44.833Z,0.88
2022-11-03T16:28:11.505Z,0.90
2022-11-03T16:30:38.655Z,0.85
2022-11-03T16:33:05.560Z,0.80
2022-11-03T16:35:32.128Z,1.10
2022-11-03T16:37:58.735Z,0.93
2022-11-03T16:40:25.374Z,0.73
2022-11-03T16:42:51.932Z,0.85
2022-11-03T16:45:23.801Z,0.93
2022-11-03T16:47:50.982Z,1.17
2022-11-03T16:50:18.875Z,0.95
2022-11-03T16:52:46.980Z,0.88
2022-11-03T16:55:14.818Z,1.08
2022-11-03T16:57:41.711Z,0.93
2022-11-03T17:00:14.643Z,1.00
2022-11-03T17:02:41.391Z,0.75
2022-11-03T17:05:09.052Z,0.80
2022-11-03T17:07:35.585Z,0.80
2022-11-03T17:10:02.469Z,0.98
2022-11-03T17:12:29.024Z,0.90
2022-11-03T17:14:56.841Z,0.95
2022-11-03T17:17:23.912Z,0.90
2022-11-03T17:19:51.122Z,0.75
2022-11-03T17:22:17.816Z,0.80
2022-11-03T17:24:44.360Z,1.00
2022-11-03T17:27:23.779Z,0.88
2022-11-03T17:29:54.578Z,0.70
2022-11-03T17:32:25.105Z,0.80
2022-11-03T17:34:55.664Z,1.17
2022-11-03T17:37:23.607Z,0.90
2022-11-03T17:39:50.682Z,0.88
2022-11-03T17:42:19.660Z,0.70
2022-11-03T17:44:50.808Z,1.00
2022-11-03T17:47:19.049Z,0.80
2022-11-03T17:49:46.715Z,1.05
2022-11-03T17:52:28.812Z,1.17
2022-11-03T17:57:26.736Z,0.90
2022-11-03T17:59:55.851Z,1.13
2022-11-03T18:02:27.627Z,0.95
2022-11-03T18:05:21.999Z,2.50
2022-11-03T18:07:49.822Z,3.35
2022-11-03T18:10:16.575Z,3.83
2022-11-03T18:13:05.429Z,3.92
2022-11-03T18:15:33.858Z,3.60
2022-11-03T18:18:01.930Z,3.03
2022-11-03T18:20:30.287Z,3.15
2022-11-03T18:23:10.756Z,2.75
2022-11-03T18:25:37.377Z,2.88
2022-11-03T18:28:04.200Z,2.70
2022-11-03T18:30:30.925Z,2.80
2022-11-03T18:32:57.670Z,2.80
2022-11-03T18:35:28.524Z,2.42
2022-11-03T18:37:56.136Z,2.70
2022-11-03T18:40:22.819Z,2.42
2022-11-03T18:42:49.393Z,2.60
2022-11-03T18:45:18.278Z,2.33
2022-11-03T18:47:45.382Z,2.25
2022-11-03T18:50:17.303Z,2.45
2022-11-03T18:52:47.603Z,2.42
2022-11-03T18:55:15.595Z,2.30
2022-11-03T18:57:42.219Z,2.25
2022-11-03T19:00:20.350Z,2.42
2022-11-03T19:02:47.708Z,2.50
2022-11-03T19:05:15.647Z,2.13
2022-11-03T19:07:45.263Z,2.30
2022-11-03T19:10:19.275Z,2.40
2022-11-03T19:12:46.211Z,2.35
2022-11-03T19:15:24.608Z,2.08
2022-11-03T19:17:54.706Z,2.40
2022-11-03T19:20:23.323Z,1.92
2022-11-03T19:22:49.954Z,2.20
2022-11-03T19:25:18.563Z,1.98
2022-11-03T19:27:47.423Z,2.30
2022-11-03T19:30:17.213Z,1.92
2022-11-03T19:32:47.257Z,2.03
2022-11-03T19:35:17.033Z,1.88
2022-11-03T19:37:43.975Z,2.25
2022-11-03T19:40:17.004Z,2.17
2022-11-03T19:42:44.863Z,2.00
2022-11-03T19:45:15.934Z,1.95
2022-11-03T19:50:36.290Z,2.17
2022-11-03T19:53:05.450Z,1.88
2022-11-03T19:55:38.457Z,2.85
2022-11-03T19:58:11.559Z,2.90
2022-11-03T20:00:38.142Z,2.83
2022-11-03T20:03:04.932Z,3.35
2022-11-03T20:05:31.740Z,3.40
2022-11-03T20:08:02.483Z,3.17
2022-11-03T20:10:31.711Z,2.92
2022-11-03T20:13:01.706Z,3.13
2022-11-03T20:15:28.277Z,3.00
2022-11-03T20:17:54.942Z,3.30
2022-11-03T20:20:24.684Z,2.78
2022-11-03T20:22:57.540Z,2.85
2022-11-03T20:25:29.802Z,3.72
2022-11-03T20:27:57.905Z,2.58
2022-11-03T20:30:26.186Z,3.28
2022-11-03T20:32:53.622Z,3.05
2022-11-03T20:35:27.057Z,2.30
2022-11-03T20:37:57.865Z,2.83
2022-11-03T20:40:27.161Z,2.70
2022-11-03T20:42:57.163Z,2.42
2022-11-03T20:45:25.467Z,2.58
2022-11-03T20:47:52.582Z,2.78
2022-11-03T20:50:20.624Z,2.97
2022-11-03T20:52:48.407Z,3.85
2022-11-03T20:55:24.059Z,4.13
2022-11-03T20:57:52.575Z,4.15
2022-11-03T21:00:27.147Z,3.65
2022-11-03T21:02:55.855Z,3.90
2022-11-03T21:05:25.616Z,3.35
2022-11-03T21:07:53.380Z,3.30
2022-11-03T21:10:21.099Z,3.20
2022-11-03T21:12:48.276Z,2.70
2022-11-03T21:15:52.341Z,3.35
2022-11-03T21:18:46.367Z,2.72
2022-11-03T21:21:16.900Z,3.00
2022-11-03T21:23:47.376Z,3.10
2022-11-03T21:26:14.073Z,3.10
2022-11-03T21:28:40.737Z,3.20
2022-11-03T21:31:13.167Z,3.30
2022-11-03T21:33:39.782Z,2.78
2022-11-03T21:36:06.667Z,2.97
2022-11-03T21:38:33.259Z,3.00
2022-11-03T21:41:19.814Z,2.88
2022-11-03T21:44:05.687Z,2.90
2022-11-03T21:46:32.265Z,2.55
2022-11-03T21:49:17.391Z,3.08
2022-11-03T21:51:43.968Z,2.53
2022-11-03T21:54:10.557Z,2.80
2022-11-03T21:56:37.126Z,2.45
2022-11-03T21:59:03.735Z,2.85
2022-11-03T22:01:30.409Z,3.28
2022-11-03T22:03:58.154Z,2.60
2022-11-03T22:06:24.726Z,2.40
2022-11-03T22:08:51.323Z,2.88
2022-11-03T22:11:23.903Z,2.75
2022-11-03T22:14:01.330Z,2.30
2022-11-03T22:16:37.728Z,2.38
2022-11-03T22:19:25.812Z,2.70
2022-11-03T22:22:11.934Z,3.00
2022-11-03T22:24:58.054Z,2.50
2022-11-03T22:27:26.133Z,2.90
2022-11-03T22:30:11.831Z,2.60
2022-11-03T22:32:38.462Z,2.45
2022-11-03T22:35:25.761Z,2.47
2022-11-03T22:38:02.108Z,2.83
2022-11-03T22:40:47.377Z,2.33
2022-11-03T22:43:32.881Z,2.53
2022-11-03T22:45:59.576Z,2.65
2022-11-03T22:48:27.310Z,2.45
2022-11-03T22:51:02.160Z,2.67
2022-11-03T22:53:48.547Z,2.63
2022-11-03T22:56:15.927Z,2.10
2022-11-03T22:58:43.519Z,2.30
2022-11-03T23:01:13.002Z,2.45
2022-11-03T23:03:40.787Z,2.22
2022-11-03T23:06:09.887Z,2.17
2022-11-03T23:08:38.315Z,2.45
2022-11-03T23:11:19.759Z,2.55
2022-11-03T23:13:52.201Z,2.63
2022-11-03T23:16:21.334Z,2.20
2022-11-03T23:19:06.904Z,2.50
2022-11-03T23:21:34.679Z,2.55
2022-11-03T23:24:20.178Z,2.40
2022-11-03T23:26:47.228Z,2.30
2022-11-03T23:29:15.330Z,2.20
2022-11-03T23:31:43.189Z,2.15
2022-11-03T23:34:10.877Z,2.47
2022-11-03T23:36:37.615Z,1.77
2022-11-03T23:39:04.798Z,2.15
2022-11-03T23:41:31.546Z,2.13
2022-11-03T23:43:58.226Z,2.47
2022-11-03T23:46:45.981Z,1.83
2022-11-03T23:49:13.522Z,2.38
2022-11-03T23:51:41.768Z,1.95
2022-11-03T23:54:09.976Z,2.35
2022-11-03T23:57:00.532Z,2.00
2022-11-03T23:59:30.029Z,2.22
